sensor_id;sensor_type;location;lat;lon;timestamp;P1;P2;P0
46381;PMS5003;66809;52.974;-2.514;2024-01-16T00:01:41;42.75;38.9;
46381;PMS5003;66809;52.974;-2.514;2024-01-16T00:03:40;42.983333333333334;39.15;
46381;PMS5003;66809;52.974;-2.514;2024-01-16T00:05:41;43.3;39.516666666666666;
46381;PMS5003;66809;52.974;-2.514;2024-01-16T00:07:40;42.36666666666667;38.55;
46381;PMS5003;66809;52.974;-2.514;2024-01-16T00:09:40;41.86666666666667;38.2;
46381;PMS5003;66809;52.974;-2.514;2024-01-16T00:11:41;41.6;37.93333333333333;
46381;PMS5003;66809;52.974;-2.514;2024-01-16T00:13:41;41.28333333333333;37.6;
46381;PMS5003;66809;52.974;-2.514;2024-01-16T00:15:40;41.11666666666667;37.56666666666667;
46381;PMS5003;66809;52.974;-2.514;2024-01-16T00:17:40;41.03333333333333;37.43333333333333;
46381;PMS5003;66809;52.974;-2.514;2024-01-16T00:19:41;40.71666666666667;37.18333333333333;
46381;PMS5003;66809;52.974;-2.514;2024-01-16T00:21:40;40.666666666666664;37.03333333333333;
46381;PMS5003;66809;52.974;-2.514;2024-01-16T00:23:40;39.85;36.266666666666666;
46381;PMS5003;66809;52.974;-2.514;2024-01-16T00:25:40;39.7;36.0;
46381;PMS5003;66809;52.974;-2.514;2024-01-16T00:27:40;39.35;35.65;
46381;PMS5003;66809;52.974;-2.514;2024-01-16T00:29:41;39.2;35.6;
46381;PMS5003;66809;52.974;-2.514;2024-01-16T00:31:40;39.03333333333333;35.416666666666664;
46381;PMS5003;66809;52.974;-2.514;2024-01-16T00:33:40;38.63333333333333;35.05;
46381;PMS5003;66809;52.974;-2.514;2024-01-16T00:35:40;38.13333333333333;34.56666666666667;
46381;PMS5003;66809;52.974;-2.514;2024-01-16T00:37:41;38.03333333333333;34.5;
46381;PMS5003;66809;52.974;-2.514;2024-01-16T00:39:40;37.71666666666667;34.13333333333333;
46381;PMS5003;66809;52.974;-2.514;2024-01-16T00:41:40;37.21666666666667;33.75;
46381;PMS5003;66809;52.974;-2.514;2024-01-16T00:43:41;36.95;33.516666666666666;
46381;PMS5003;66809;52.974;-2.514;2024-01-16T00:45:41;36.333333333333336;32.9;
46381;PMS5003;66809;52.974;-2.514;2024-01-16T00:47:40;35.3;31.983333333333334;
46381;PMS5003;66809;52.974;-2.514;2024-01-16T00:49:40;35.13333333333333;31.8;
46381;PMS5003;66809;52.974;-2.514;2024-01-16T00:51:41;34.9;31.6;
46381;PMS5003;66809;52.974;-2.514;2024-01-16T00:53:40;34.516666666666666;31.35;
46381;PMS5003;66809;52.974;-2.514;2024-01-16T00:55:40;34.45;31.333333333333332;
46381;PMS5003;66809;52.974;-2.514;2024-01-16T00:57:40;34.4;31.283333333333335;
46381;PMS5003;66809;52.974;-2.514;2024-01-16T00:59:41;34.25;31.216666666666665;
46381;PMS5003;66809;52.974;-2.514;2024-01-16T01:01:40;34.21666666666667;31.283333333333335;
46381;PMS5003;66809;52.974;-2.514;2024-01-16T01:03:40;33.95;30.983333333333334;
46381;PMS5003;66809;52.974;-2.514;2024-01-16T01:05:41;33.75;30.866666666666667;
46381;PMS5003;66809;52.974;-2.514;2024-01-16T01:07:40;33.6;30.7;
46381;PMS5003;66809;52.974;-2.514;2024-01-16T01:09:40;33.6;30.666666666666668;
46381;PMS5003;66809;52.974;-2.514;2024-01-16T01:11:41;33.35;30.416666666666668;
46381;PMS5003;66809;52.974;-2.514;2024-01-16T01:13:41;33.0;30.033333333333335;
46381;PMS5003;66809;52.974;-2.514;2024-01-16T01:15:40;32.266666666666666;29.233333333333334;
46381;PMS5003;66809;52.974;-2.514;2024-01-16T01:17:40;31.783333333333335;28.9;
46381;PMS5003;66809;52.974;-2.514;2024-01-16T01:19:40;31.666666666666668;28.75;
46381;PMS5003;66809;52.974;-2.514;2024-01-16T01:21:40;31.033333333333335;28.233333333333334;
46381;PMS5003;66809;52.974;-2.514;2024-01-16T01:23:40;30.933333333333334;28.166666666666668;
46381;PMS5003;66809;52.974;-2.514;2024-01-16T01:25:40;30.683333333333334;27.95;
46381;PMS5003;66809;52.974;-2.514;2024-01-16T01:27:41;30.533333333333335;27.833333333333332;
46381;PMS5003;66809;52.974;-2.514;2024-01-16T01:29:40;29.966666666666665;27.2;
46381;PMS5003;66809;52.974;-2.514;2024-01-16T01:31:40;29.15;26.4;
46381;PMS5003;66809;52.974;-2.514;2024-01-16T01:33:40;28.716666666666665;25.983333333333334;
46381;PMS5003;66809;52.974;-2.514;2024-01-16T01:35:40;28.133333333333333;25.466666666666665;
46381;PMS5003;66809;52.974;-2.514;2024-01-16T01:37:40;27.433333333333334;24.75;
46381;PMS5003;66809;52.974;-2.514;2024-01-16T01:39:41;26.966666666666665;24.35;
46381;PMS5003;66809;52.974;-2.514;2024-01-16T01:41:40;26.633333333333333;23.95;
46381;PMS5003;66809;52.974;-2.514;2024-01-16T01:43:40;25.966666666666665;23.366666666666667;
46381;PMS5003;66809;52.974;-2.514;2024-01-16T01:45:41;25.566666666666666;23.033333333333335;
46381;PMS5003;66809;52.974;-2.514;2024-01-16T01:47:40;25.15;22.616666666666667;
46381;PMS5003;66809;52.974;-2.514;2024-01-16T01:49:40;24.183333333333334;21.783333333333335;
46381;PMS5003;66809;52.974;-2.514;2024-01-16T01:51:40;23.533333333333335;21.15;
46381;PMS5003;66809;52.974;-2.514;2024-01-16T01:53:41;23.0;20.65;
46381;PMS5003;66809;52.974;-2.514;2024-01-16T01:55:40;22.15;19.816666666666666;
46381;PMS5003;66809;52.974;-2.514;2024-01-16T01:57:40;21.166666666666668;18.7;
46381;PMS5003;66809;52.974;-2.514;2024-01-16T01:59:40;20.316666666666666;17.916666666666668;
46381;PMS5003;66809;52.974;-2.514;2024-01-16T02:01:40;19.316666666666666;16.883333333333333;
46381;PMS5003;66809;52.974;-2.514;2024-01-16T02:03:41;18.616666666666667;16.183333333333334;
46381;PMS5003;66809;52.974;-2.514;2024-01-16T02:05:41;17.616666666666667;15.2;
46381;PMS5003;66809;52.974;-2.514;2024-01-16T02:07:40;16.933333333333334;14.6;
46381;PMS5003;66809;52.974;-2.514;2024-01-16T02:09:40;16.433333333333334;14.083333333333334;
46381;PMS5003;66809;52.974;-2.514;2024-01-16T02:11:40;15.983333333333333;13.683333333333334;
46381;PMS5003;66809;52.974;-2.514;2024-01-16T02:13:40;15.75;13.5;
46381;PMS5003;66809;52.974;-2.514;2024-01-16T02:15:40;15.483333333333333;13.266666666666667;
46381;PMS5003;66809;52.974;-2.514;2024-01-16T02:17:41;15.2;12.933333333333334;
46381;PMS5003;66809;52.974;-2.514;2024-01-16T02:19:40;14.75;12.55;
46381;PMS5003;66809;52.974;-2.514;2024-01-16T02:21:41;14.5;12.316666666666666;
46381;PMS5003;66809;52.974;-2.514;2024-01-16T02:23:40;14.166666666666666;12.033333333333333;
46381;PMS5003;66809;52.974;-2.514;2024-01-16T02:25:40;13.85;11.716666666666667;
46381;PMS5003;66809;52.974;-2.514;2024-01-16T02:27:40;13.516666666666667;11.4;
46381;PMS5003;66809;52.974;-2.514;2024-01-16T02:29:41;13.25;11.233333333333333;
46381;PMS5003;66809;52.974;-2.514;2024-01-16T02:31:40;13.183333333333334;11.183333333333334;
46381;PMS5003;66809;52.974;-2.514;2024-01-16T02:33:41;13.05;11.116666666666667;
46381;PMS5003;66809;52.974;-2.514;2024-01-16T02:35:40;12.933333333333334;11.0;
46381;PMS5003;66809;52.974;-2.514;2024-01-16T02:37:40;12.783333333333333;10.95;
46381;PMS5003;66809;52.974;-2.514;2024-01-16T02:39:41;12.65;10.866666666666667;
46381;PMS5003;66809;52.974;-2.514;2024-01-16T02:41:40;12.4;10.716666666666667;
46381;PMS5003;66809;52.974;-2.514;2024-01-16T02:43:40;12.45;10.733333333333333;
46381;PMS5003;66809;52.974;-2.514;2024-01-16T02:45:41;12.533333333333333;10.783333333333333;
46381;PMS5003;66809;52.974;-2.514;2024-01-16T02:47:40;12.433333333333334;10.716666666666667;
46381;PMS5003;66809;52.974;-2.514;2024-01-16T02:49:40;12.383333333333333;10.633333333333333;
46381;PMS5003;66809;52.974;-2.514;2024-01-16T02:51:41;12.25;10.566666666666666;
46381;PMS5003;66809;52.974;-2.514;2024-01-16T02:53:40;12.166666666666666;10.466666666666667;
46381;PMS5003;66809;52.974;-2.514;2024-01-16T02:55:40;12.016666666666667;10.333333333333334;
46381;PMS5003;66809;52.974;-2.514;2024-01-16T02:57:40;11.766666666666667;10.266666666666667;
46381;PMS5003;66809;52.974;-2.514;2024-01-16T02:59:43;11.783333333333333;10.233333333333333;
46381;PMS5003;66809;52.974;-2.514;2024-01-16T03:01:40;11.666666666666666;10.133333333333333;
46381;PMS5003;66809;52.974;-2.514;2024-01-16T03:03:40;11.333333333333334;9.933333333333334;
46381;PMS5003;66809;52.974;-2.514;2024-01-16T03:05:41;11.15;9.8;
46381;PMS5003;66809;52.974;-2.514;2024-01-16T03:07:40;11.083333333333334;9.716666666666667;
46381;PMS5003;66809;52.974;-2.514;2024-01-16T03:09:40;10.9;9.6;
46381;PMS5003;66809;52.974;-2.514;2024-01-16T03:11:41;10.833333333333334;9.516666666666667;
46381;PMS5003;66809;52.974;-2.514;2024-01-16T03:13:40;10.65;9.35;
46381;PMS5003;66809;52.974;-2.514;2024-01-16T03:15:40;10.633333333333333;9.283333333333333;
46381;PMS5003;66809;52.974;-2.514;2024-01-16T03:17:40;10.516666666666667;9.216666666666667;
46381;PMS5003;66809;52.974;-2.514;2024-01-16T03:19:40;10.383333333333333;9.083333333333334;
46381;PMS5003;66809;52.974;-2.514;2024-01-16T03:21:40;10.183333333333334;8.866666666666667;
46381;PMS5003;66809;52.974;-2.514;2024-01-16T03:23:40;10.05;8.783333333333333;
46381;PMS5003;66809;52.974;-2.514;2024-01-16T03:25:41;9.9;8.666666666666666;
46381;PMS5003;66809;52.974;-2.514;2024-01-16T03:27:41;9.8;8.6;
46381;PMS5003;66809;52.974;-2.514;2024-01-16T03:29:40;9.633333333333333;8.466666666666667;
46381;PMS5003;66809;52.974;-2.514;2024-01-16T03:31:40;9.366666666666667;8.266666666666667;
46381;PMS5003;66809;52.974;-2.514;2024-01-16T03:33:41;9.316666666666666;8.183333333333334;
46381;PMS5003;66809;52.974;-2.514;2024-01-16T03:35:40;9.25;8.083333333333334;
46381;PMS5003;66809;52.974;-2.514;2024-01-16T03:37:40;9.133333333333333;7.983333333333333;
46381;PMS5003;66809;52.974;-2.514;2024-01-16T03:39:40;9.133333333333333;7.966666666666667;
46381;PMS5003;66809;52.974;-2.514;2024-01-16T03:41:40;9.25;8.0;
46381;PMS5003;66809;52.974;-2.514;2024-01-16T03:43:40;8.983333333333333;7.783333333333333;
46381;PMS5003;66809;52.974;-2.514;2024-01-16T03:45:40;8.8;7.6;
46381;PMS5003;66809;52.974;-2.514;2024-01-16T03:47:41;8.616666666666667;7.433333333333334;
46381;PMS5003;66809;52.974;-2.514;2024-01-16T03:49:40;8.5;7.333333333333333;
46381;PMS5003;66809;52.974;-2.514;2024-01-16T03:51:40;8.333333333333334;7.183333333333334;
46381;PMS5003;66809;52.974;-2.514;2024-01-16T03:53:41;8.216666666666667;7.05;
46381;PMS5003;66809;52.974;-2.514;2024-01-16T03:55:40;8.066666666666666;6.916666666666667;
46381;PMS5003;66809;52.974;-2.514;2024-01-16T03:57:40;7.966666666666667;6.75;
46381;PMS5003;66809;52.974;-2.514;2024-01-16T03:59:41;7.866666666666666;6.616666666666666;
46381;PMS5003;66809;52.974;-2.514;2024-01-16T04:01:40;7.616666666666666;6.45;
46381;PMS5003;66809;52.974;-2.514;2024-01-16T04:03:40;7.516666666666667;6.333333333333333;
46381;PMS5003;66809;52.974;-2.514;2024-01-16T04:05:41;7.35;6.183333333333334;
46381;PMS5003;66809;52.974;-2.514;2024-01-16T04:07:40;7.083333333333333;5.95;
46381;PMS5003;66809;52.974;-2.514;2024-01-16T04:09:42;6.916666666666667;5.766666666666667;
46381;PMS5003;66809;52.974;-2.514;2024-01-16T04:11:41;6.733333333333333;5.616666666666666;
46381;PMS5003;66809;52.974;-2.514;2024-01-16T04:13:41;6.566666666666666;5.5;
46381;PMS5003;66809;52.974;-2.514;2024-01-16T04:15:40;6.316666666666666;5.333333333333333;
46381;PMS5003;66809;52.974;-2.514;2024-01-16T04:17:40;6.05;5.083333333333333;
46381;PMS5003;66809;52.974;-2.514;2024-01-16T04:19:41;5.916666666666667;4.966666666666667;
46381;PMS5003;66809;52.974;-2.514;2024-01-16T04:21:40;5.816666666666666;4.883333333333334;
46381;PMS5003;66809;52.974;-2.514;2024-01-16T04:23:41;5.616666666666666;4.683333333333334;
46381;PMS5003;66809;52.974;-2.514;2024-01-16T04:25:40;5.433333333333334;4.533333333333333;
46381;PMS5003;66809;52.974;-2.514;2024-01-16T04:27:40;5.25;4.316666666666666;
46381;PMS5003;66809;52.974;-2.514;2024-01-16T04:29:41;5.133333333333334;4.216666666666667;
46381;PMS5003;66809;52.974;-2.514;2024-01-16T04:31:41;5.05;4.1;
46381;PMS5003;66809;52.974;-2.514;2024-01-16T04:33:40;4.85;3.9166666666666665;
46381;PMS5003;66809;52.974;-2.514;2024-01-16T04:35:40;4.616666666666666;3.7666666666666666;
46381;PMS5003;66809;52.974;-2.514;2024-01-16T04:37:41;4.516666666666667;3.65;
46381;PMS5003;66809;52.974;-2.514;2024-01-16T04:39:40;4.35;3.4833333333333334;
46381;PMS5003;66809;52.974;-2.514;2024-01-16T04:41:40;4.016666666666667;3.283333333333333;
46381;PMS5003;66809;52.974;-2.514;2024-01-16T04:43:41;3.9833333333333334;3.2;
46381;PMS5003;66809;52.974;-2.514;2024-01-16T04:45:40;3.8666666666666667;3.0833333333333335;
46381;PMS5003;66809;52.974;-2.514;2024-01-16T04:47:40;3.7666666666666666;2.966666666666667;
46381;PMS5003;66809;52.974;-2.514;2024-01-16T04:49:41;3.683333333333333;2.85;
46381;PMS5003;66809;52.974;-2.514;2024-01-16T04:51:41;3.6333333333333333;2.783333333333333;
46381;PMS5003;66809;52.974;-2.514;2024-01-16T04:53:40;3.566666666666667;2.7666666666666666;
46381;PMS5003;66809;52.974;-2.514;2024-01-16T04:55:40;3.466666666666667;2.7;
46381;PMS5003;66809;52.974;-2.514;2024-01-16T04:57:40;3.35;2.6666666666666665;
46381;PMS5003;66809;52.974;-2.514;2024-01-16T04:59:40;3.183333333333333;2.5833333333333335;
46381;PMS5003;66809;52.974;-2.514;2024-01-16T05:01:40;3.1333333333333333;2.5166666666666666;
46381;PMS5003;66809;52.974;-2.514;2024-01-16T05:03:40;3.0833333333333335;2.466666666666667;
46381;PMS5003;66809;52.974;-2.514;2024-01-16T05:05:41;3.0;2.3833333333333333;
46381;PMS5003;66809;52.974;-2.514;2024-01-16T05:07:41;2.966666666666667;2.3666666666666667;
46381;PMS5003;66809;52.974;-2.514;2024-01-16T05:09:40;2.9833333333333334;2.3666666666666667;
46381;PMS5003;66809;52.974;-2.514;2024-01-16T05:11:40;2.9;2.3;
46381;PMS5003;66809;52.974;-2.514;2024-01-16T05:13:41;2.85;2.25;
46381;PMS5003;66809;52.974;-2.514;2024-01-16T05:15:40;2.85;2.183333333333333;
46381;PMS5003;66809;52.974;-2.514;2024-01-16T05:17:40;2.783333333333333;2.1333333333333333;
46381;PMS5003;66809;52.974;-2.514;2024-01-16T05:19:41;2.7666666666666666;2.1;
46381;PMS5003;66809;52.974;-2.514;2024-01-16T05:21:40;2.783333333333333;2.0833333333333335;
46381;PMS5003;66809;52.974;-2.514;2024-01-16T05:23:40;2.8;2.066666666666667;
46381;PMS5003;66809;52.974;-2.514;2024-01-16T05:25:40;2.783333333333333;2.033333333333333;
46381;PMS5003;66809;52.974;-2.514;2024-01-16T05:27:41;2.75;2.033333333333333;
46381;PMS5003;66809;52.974;-2.514;2024-01-16T05:29:40;2.75;2.0166666666666666;
46381;PMS5003;66809;52.974;-2.514;2024-01-16T05:31:40;2.683333333333333;2.0;
46381;PMS5003;66809;52.974;-2.514;2024-01-16T05:33:40;2.75;2.0;
46381;PMS5003;66809;52.974;-2.514;2024-01-16T05:35:40;2.85;2.0833333333333335;
46381;PMS5003;66809;52.974;-2.514;2024-01-16T05:37:40;2.816666666666667;2.1;
46381;PMS5003;66809;52.974;-2.514;2024-01-16T05:39:41;2.85;2.1333333333333333;
46381;PMS5003;66809;52.974;-2.514;2024-01-16T05:41:40;2.8333333333333335;2.1;
46381;PMS5003;66809;52.974;-2.514;2024-01-16T05:43:40;2.8;2.1166666666666667;
46381;PMS5003;66809;52.974;-2.514;2024-01-16T05:45:41;2.816666666666667;2.15;
46381;PMS5003;66809;52.974;-2.514;2024-01-16T05:47:40;2.9166666666666665;2.2;
46381;PMS5003;66809;52.974;-2.514;2024-01-16T05:49:40;2.933333333333333;2.2333333333333334;
46381;PMS5003;66809;52.974;-2.514;2024-01-16T05:51:41;2.9833333333333334;2.25;
46381;PMS5003;66809;52.974;-2.514;2024-01-16T05:53:40;2.9833333333333334;2.25;
46381;PMS5003;66809;52.974;-2.514;2024-01-16T05:55:40;3.0833333333333335;2.3;
46381;PMS5003;66809;52.974;-2.514;2024-01-16T05:57:41;3.0833333333333335;2.283333333333333;
46381;PMS5003;66809;52.974;-2.514;2024-01-16T05:59:41;3.2;2.3666666666666667;
46381;PMS5003;66809;52.974;-2.514;2024-01-16T06:01:40;4.45;3.433333333333333;
46381;PMS5003;66809;52.974;-2.514;2024-01-16T06:03:40;7.1;5.783333333333333;
46381;PMS5003;66809;52.974;-2.514;2024-01-16T06:05:40;13.116666666666667;11.183333333333334;
46381;PMS5003;66809;52.974;-2.514;2024-01-16T06:07:41;19.566666666666666;17.116666666666667;
46381;PMS5003;66809;52.974;-2.514;2024-01-16T06:09:40;26.333333333333332;22.95;
46381;PMS5003;66809;52.974;-2.514;2024-01-16T06:11:40;30.066666666666666;26.333333333333332;
46381;PMS5003;66809;52.974;-2.514;2024-01-16T06:13:40;31.65;27.783333333333335;
46381;PMS5003;66809;52.974;-2.514;2024-01-16T06:15:41;32.083333333333336;28.216666666666665;
46381;PMS5003;66809;52.974;-2.514;2024-01-16T06:17:40;32.28333333333333;28.416666666666668;
46381;PMS5003;66809;52.974;-2.514;2024-01-16T06:19:40;32.28333333333333;28.433333333333334;
46381;PMS5003;66809;52.974;-2.514;2024-01-16T06:21:40;32.28333333333333;28.466666666666665;
46381;PMS5003;66809;52.974;-2.514;2024-01-16T06:23:40;32.3;28.5;
46381;PMS5003;66809;52.974;-2.514;2024-01-16T06:25:40;32.3;28.533333333333335;
46381;PMS5003;66809;52.974;-2.514;2024-01-16T06:27:40;32.35;28.6;
46381;PMS5003;66809;52.974;-2.514;2024-01-16T06:29:41;32.38333333333333;28.616666666666667;
46381;PMS5003;66809;52.974;-2.514;2024-01-16T06:31:40;32.55;28.683333333333334;
46381;PMS5003;66809;52.974;-2.514;2024-01-16T06:33:40;32.55;28.733333333333334;
46381;PMS5003;66809;52.974;-2.514;2024-01-16T06:35:41;32.5;28.683333333333334;
46381;PMS5003;66809;52.974;-2.514;2024-01-16T06:37:40;32.583333333333336;28.733333333333334;
46381;PMS5003;66809;52.974;-2.514;2024-01-16T06:39:40;32.583333333333336;28.75;
46381;PMS5003;66809;52.974;-2.514;2024-01-16T06:41:40;32.65;28.783333333333335;
46381;PMS5003;66809;52.974;-2.514;2024-01-16T06:43:40;32.68333333333333;28.783333333333335;
46381;PMS5003;66809;52.974;-2.514;2024-01-16T06:45:41;32.75;28.866666666666667;
46381;PMS5003;66809;52.974;-2.514;2024-01-16T06:47:40;32.733333333333334;28.883333333333333;
46381;PMS5003;66809;52.974;-2.514;2024-01-16T06:49:41;32.766666666666666;28.966666666666665;
46381;PMS5003;66809;52.974;-2.514;2024-01-16T06:51:40;32.8;29.016666666666666;
46381;PMS5003;66809;52.974;-2.514;2024-01-16T06:53:40;32.88333333333333;29.066666666666666;
46381;PMS5003;66809;52.974;-2.514;2024-01-16T06:55:41;32.916666666666664;29.066666666666666;
46381;PMS5003;66809;52.974;-2.514;2024-01-16T06:57:40;33.03333333333333;29.133333333333333;
46381;PMS5003;66809;52.974;-2.514;2024-01-16T06:59:40;33.03333333333333;29.15;
46381;PMS5003;66809;52.974;-2.514;2024-01-16T07:01:40;32.016666666666666;28.233333333333334;
46381;PMS5003;66809;52.974;-2.514;2024-01-16T07:03:40;29.55;26.033333333333335;
46381;PMS5003;66809;52.974;-2.514;2024-01-16T07:05:40;23.8;20.816666666666666;
46381;PMS5003;66809;52.974;-2.514;2024-01-16T07:07:40;17.55;15.05;
46381;PMS5003;66809;52.974;-2.514;2024-01-16T07:09:40;10.95;9.433333333333334;
46381;PMS5003;66809;52.974;-2.514;2024-01-16T07:11:40;7.416666666666667;6.216666666666667;
46381;PMS5003;66809;52.974;-2.514;2024-01-16T07:13:40;6.0;4.933333333333334;
46381;PMS5003;66809;52.974;-2.514;2024-01-16T07:15:40;5.816666666666666;4.766666666666667;
46381;PMS5003;66809;52.974;-2.514;2024-01-16T07:17:40;6.083333333333333;4.95;
46381;PMS5003;66809;52.974;-2.514;2024-01-16T07:19:41;6.65;5.516666666666667;
46381;PMS5003;66809;52.974;-2.514;2024-01-16T07:21:40;7.316666666666666;6.116666666666666;
46381;PMS5003;66809;52.974;-2.514;2024-01-16T07:23:40;8.316666666666666;7.116666666666666;
46381;PMS5003;66809;52.974;-2.514;2024-01-16T07:25:41;8.916666666666666;7.733333333333333;
46381;PMS5003;66809;52.974;-2.514;2024-01-16T07:27:40;9.533333333333333;8.3;
46381;PMS5003;66809;52.974;-2.514;2024-01-16T07:29:40;10.216666666666667;8.966666666666667;
46381;PMS5003;66809;52.974;-2.514;2024-01-16T07:31:41;10.95;9.8;
46381;PMS5003;66809;52.974;-2.514;2024-01-16T07:33:40;11.3;10.15;
46381;PMS5003;66809;52.974;-2.514;2024-01-16T07:35:40;11.733333333333333;10.583333333333334;
46381;PMS5003;66809;52.974;-2.514;2024-01-16T07:37:40;12.116666666666667;10.933333333333334;
46381;PMS5003;66809;52.974;-2.514;2024-01-16T07:39:41;12.6;11.383333333333333;
46381;PMS5003;66809;52.974;-2.514;2024-01-16T07:41:40;13.083333333333334;11.883333333333333;
46381;PMS5003;66809;52.974;-2.514;2024-01-16T07:43:40;13.55;12.4;
46381;PMS5003;66809;52.974;-2.514;2024-01-16T07:45:41;14.066666666666666;12.866666666666667;
46381;PMS5003;66809;52.974;-2.514;2024-01-16T07:47:40;14.5;13.3;
46381;PMS5003;66809;52.974;-2.514;2024-01-16T07:49:40;14.9;13.65;
46381;PMS5003;66809;52.974;-2.514;2024-01-16T07:51:40;15.233333333333333;13.983333333333333;
46381;PMS5003;66809;52.974;-2.514;2024-01-16T07:53:40;15.583333333333334;14.366666666666667;
46381;PMS5003;66809;52.974;-2.514;2024-01-16T07:55:40;16.116666666666667;14.966666666666667;
46381;PMS5003;66809;52.974;-2.514;2024-01-16T07:57:40;16.833333333333332;15.666666666666666;
46381;PMS5003;66809;52.974;-2.514;2024-01-16T07:59:41;17.55;16.333333333333332;
46381;PMS5003;66809;52.974;-2.514;2024-01-16T08:01:40;18.0;16.883333333333333;
46381;PMS5003;66809;52.974;-2.514;2024-01-16T08:03:40;18.766666666666666;17.6;
46381;PMS5003;66809;52.974;-2.514;2024-01-16T08:05:41;19.35;18.233333333333334;
46381;PMS5003;66809;52.974;-2.514;2024-01-16T08:07:42;19.85;18.766666666666666;
46381;PMS5003;66809;52.974;-2.514;2024-01-16T08:09:40;20.383333333333333;19.283333333333335;
46381;PMS5003;66809;52.974;-2.514;2024-01-16T08:11:40;20.816666666666666;19.716666666666665;
46381;PMS5003;66809;52.974;-2.514;2024-01-16T08:13:40;21.15;20.016666666666666;
46381;PMS5003;66809;52.974;-2.514;2024-01-16T08:15:41;21.433333333333334;20.283333333333335;
46381;PMS5003;66809;52.974;-2.514;2024-01-16T08:17:41;21.2;20.133333333333333;
46381;PMS5003;66809;52.974;-2.514;2024-01-16T08:19:40;20.733333333333334;19.666666666666668;
46381;PMS5003;66809;52.974;-2.514;2024-01-16T08:21:40;20.116666666666667;19.083333333333332;
46381;PMS5003;66809;52.974;-2.514;2024-01-16T08:23:40;19.266666666666666;18.25;
46381;PMS5003;66809;52.974;-2.514;2024-01-16T08:25:41;18.8;17.716666666666665;
46381;PMS5003;66809;52.974;-2.514;2024-01-16T08:27:40;18.233333333333334;17.133333333333333;
46381;PMS5003;66809;52.974;-2.514;2024-01-16T08:29:40;17.583333333333332;16.5;
46381;PMS5003;66809;52.974;-2.514;2024-01-16T08:31:41;16.8;15.666666666666666;
46381;PMS5003;66809;52.974;-2.514;2024-01-16T08:33:40;16.4;15.283333333333333;
46381;PMS5003;66809;52.974;-2.514;2024-01-16T08:35:40;16.033333333333335;14.916666666666666;
46381;PMS5003;66809;52.974;-2.514;2024-01-16T08:37:40;15.666666666666666;14.566666666666666;
46381;PMS5003;66809;52.974;-2.514;2024-01-16T08:39:41;15.183333333333334;14.133333333333333;
46381;PMS5003;66809;52.974;-2.514;2024-01-16T08:41:40;14.75;13.733333333333333;
46381;PMS5003;66809;52.974;-2.514;2024-01-16T08:43:40;14.433333333333334;13.4;
46381;PMS5003;66809;52.974;-2.514;2024-01-16T08:45:40;14.033333333333333;13.033333333333333;
46381;PMS5003;66809;52.974;-2.514;2024-01-16T08:47:40;13.9;12.866666666666667;
46381;PMS5003;66809;52.974;-2.514;2024-01-16T08:49:40;13.85;12.8;
46381;PMS5003;66809;52.974;-2.514;2024-01-16T08:51:41;13.966666666666667;12.95;
46381;PMS5003;66809;52.974;-2.514;2024-01-16T08:53:40;14.1;13.05;
46381;PMS5003;66809;52.974;-2.514;2024-01-16T08:55:40;14.083333333333334;12.983333333333333;
46381;PMS5003;66809;52.974;-2.514;2024-01-16T08:57:41;13.716666666666667;12.683333333333334;
46381;PMS5003;66809;52.974;-2.514;2024-01-16T08:59:40;13.466666666666667;12.483333333333333;
46381;PMS5003;66809;52.974;-2.514;2024-01-16T09:01:40;13.366666666666667;12.333333333333334;
46381;PMS5003;66809;52.974;-2.514;2024-01-16T09:03:40;12.783333333333333;11.783333333333333;
46381;PMS5003;66809;52.974;-2.514;2024-01-16T09:05:40;12.15;11.15;
46381;PMS5003;66809;52.974;-2.514;2024-01-16T09:07:40;11.566666666666666;10.55;
46381;PMS5003;66809;52.974;-2.514;2024-01-16T09:09:41;10.966666666666667;9.933333333333334;
46381;PMS5003;66809;52.974;-2.514;2024-01-16T09:11:40;10.533333333333333;9.516666666666667;
46381;PMS5003;66809;52.974;-2.514;2024-01-16T09:13:40;10.283333333333333;9.266666666666667;
46381;PMS5003;66809;52.974;-2.514;2024-01-16T09:15:40;10.483333333333333;9.45;
46381;PMS5003;66809;52.974;-2.514;2024-01-16T09:17:41;10.6;9.516666666666667;
46381;PMS5003;66809;52.974;-2.514;2024-01-16T09:19:40;10.666666666666666;9.583333333333334;
46381;PMS5003;66809;52.974;-2.514;2024-01-16T09:21:40;10.816666666666666;9.716666666666667;
46381;PMS5003;66809;52.974;-2.514;2024-01-16T09:23:41;10.966666666666667;9.816666666666666;
46381;PMS5003;66809;52.974;-2.514;2024-01-16T09:25:40;11.15;10.066666666666666;
46381;PMS5003;66809;52.974;-2.514;2024-01-16T09:27:40;11.766666666666667;10.65;
46381;PMS5003;66809;52.974;-2.514;2024-01-16T09:29:41;12.45;11.333333333333334;
46381;PMS5003;66809;52.974;-2.514;2024-01-16T09:31:41;13.283333333333333;12.166666666666666;
46381;PMS5003;66809;52.974;-2.514;2024-01-16T09:33:41;14.1;12.983333333333333;